Time;durP1;ratioP1;P1;durP2;ratioP2;P2;SDS_P1;SDS_P2;PMS_P1;PMS_P2;Temp;Humidity;BMP_temperature;BMP_pressure;BME280_temperature;BME280_humidity;BME280_pressure;Samples;Min_cycle;Max_cycle;Signal;HPM_P1;HPM_P2
2023/01/28 00:01:57;;;;;;;3.20;2.90;;;;;;;1.31;96.34;100991.41;5028293;28;20218;-72
2023/01/28 00:04:22;;;;;;;3.60;3.30;;;;;;;1.27;97.07;100989.56;5028612;28;20191;-73
2023/01/28 00:06:48;;;;;;;3.60;3.30;;;;;;;1.27;97.69;100987.00;5017579;28;20658;-72
2023/01/28 00:09:13;;;;;;;3.20;2.90;;;;;;;1.29;97.64;100988.81;5017477;28;20214;-72
2023/01/28 00:11:38;;;;;;;3.57;3.27;;;;;;;1.32;98.20;100990.59;5020799;28;20192;-72
2023/01/28 00:14:04;;;;;;;3.27;2.97;;;;;;;1.32;98.23;100996.59;5030432;28;20554;-74
2023/01/28 00:16:29;;;;;;;3.43;3.13;;;;;;;1.35;98.31;100996.72;5023222;28;20213;-73
2023/01/28 00:18:55;;;;;;;4.23;3.83;;;;;;;1.38;98.17;100990.84;5017884;28;20192;-75
2023/01/28 00:21:20;;;;;;;3.77;3.37;;;;;;;1.33;98.30;100993.22;5018449;28;20779;-74
2023/01/28 00:23:54;;;;;;;3.77;3.40;;;;;;;1.31;98.82;100987.19;5027275;28;20571;-72
2023/01/28 00:26:20;;;;;;;4.10;3.70;;;;;;;1.35;99.02;100988.16;5008937;28;20191;-73
2023/01/28 00:28:47;;;;;;;3.63;3.30;;;;;;;1.34;99.18;100996.63;5021472;28;20183;-72
2023/01/28 00:31:17;;;;;;;3.70;3.40;;;;;;;1.33;99.03;100992.34;5016496;28;20847;-74
2023/01/28 00:33:44;;;;;;;4.10;3.63;;;;;;;1.33;99.28;100994.88;5028031;28;20593;-73
2023/01/28 00:36:11;;;;;;;3.90;3.60;;;;;;;1.32;99.34;100993.16;5019808;28;20187;-73
2023/01/28 00:38:36;;;;;;;3.83;3.53;;;;;;;1.33;99.67;100997.44;5038696;28;20182;-75
2023/01/28 00:41:14;;;;;;;4.20;3.80;;;;;;;1.32;99.42;100998.25;5036196;28;20171;-74
2023/01/28 00:43:41;;;;;;;3.90;3.40;;;;;;;1.30;100.00;100999.84;5036759;28;20209;-73
2023/01/28 00:46:08;;;;;;;3.70;3.40;;;;;;;1.29;100.00;100998.13;5032755;28;20187;-75
2023/01/28 00:48:35;;;;;;;4.23;3.83;;;;;;;1.31;100.00;100996.50;5030194;28;20186;-73
2023/01/28 00:51:00;;;;;;;4.33;3.93;;;;;;;1.32;100.00;101000.78;5040902;28;20236;-72
2023/01/28 00:53:26;;;;;;;3.93;3.63;;;;;;;1.32;100.00;100995.69;5023792;28;20207;-72
2023/01/28 00:55:54;;;;;;;4.43;4.03;;;;;;;1.34;99.79;101002.63;5021927;28;20184;-76
2023/01/28 00:58:19;;;;;;;4.10;3.70;;;;;;;1.33;99.88;101008.53;5023407;28;20188;-73
2023/01/28 01:00:45;;;;;;;4.33;3.93;;;;;;;1.34;99.66;100999.19;5028020;28;20193;-73
2023/01/28 01:03:10;;;;;;;3.33;3.00;;;;;;;1.36;99.34;101000.97;5021641;28;20585;-73
2023/01/28 01:05:36;;;;;;;4.20;3.80;;;;;;;1.35;99.84;100995.81;5030724;28;20237;-72
2023/01/28 01:08:01;;;;;;;3.80;3.40;;;;;;;1.33;100.00;100998.31;5032865;28;20178;-74
2023/01/28 01:10:26;;;;;;;4.07;3.67;;;;;;;1.33;99.56;100995.78;5023648;28;20206;-75
2023/01/28 01:12:52;;;;;;;3.40;3.10;;;;;;;1.33;99.99;100997.44;5023323;28;20219;-73
2023/01/28 01:15:18;;;;;;;3.97;3.60;;;;;;;1.34;99.89;100994.06;5030676;28;21246;-71
2023/01/28 01:17:47;;;;;;;3.40;3.10;;;;;;;1.34;99.70;100992.41;5042498;28;20178;-74
2023/01/28 01:20:25;;;;;;;3.00;2.80;;;;;;;1.34;99.90;100992.41;5032461;28;20188;-72
2023/01/28 01:22:53;;;;;;;3.40;3.10;;;;;;;1.34;100.00;101004.28;5022736;28;20699;-74
2023/01/28 01:25:19;;;;;;;3.50;3.20;;;;;;;1.40;99.96;101002.00;5031486;28;20195;-72
2023/01/28 01:27:48;;;;;;;3.23;2.93;;;;;;;1.40;99.72;101001.09;5041620;28;20174;-73
2023/01/28 01:30:14;;;;;;;3.57;3.27;;;;;;;1.37;100.00;101001.84;5029625;28;20559;-73
2023/01/28 01:32:39;;;;;;;3.90;3.53;;;;;;;1.35;100.00;101003.47;5017097;28;21078;-72
2023/01/28 01:35:07;;;;;;;3.57;3.27;;;;;;;1.35;99.91;101003.47;5025132;28;20184;-73
2023/01/28 01:37:36;;;;;;;3.30;3.00;;;;;;;1.33;99.93;100992.34;5051411;28;20171;-73
2023/01/28 01:40:03;;;;;;;3.97;3.60;;;;;;;1.34;100.00;101005.16;5033303;28;20184;-72
2023/01/28 01:42:30;;;;;;;3.57;3.27;;;;;;;1.33;100.00;101002.53;5031506;28;20591;-73
2023/01/28 01:44:58;;;;;;;3.40;3.10;;;;;;;1.33;100.00;101003.44;5038506;28;20285;-72
2023/01/28 01:47:51;;;;;;;3.50;3.20;;;;;;;1.33;100.00;101003.44;5028363;28;20286;-73
2023/01/28 01:50:22;;;;;;;4.10;3.70;;;;;;;1.35;100.00;101000.94;5012008;28;20192;-74
2023/01/28 01:52:51;;;;;;;4.57;3.20;;;;;;;1.35;100.00;101009.47;5042714;28;20226;-72
2023/01/28 01:55:20;;;;;;;3.57;3.27;;;;;;;1.33;100.00;100997.44;5043460;28;20532;-73
2023/01/28 01:57:49;;;;;;;3.37;3.07;;;;;;;1.32;100.00;100998.25;5021804;28;20614;-73
2023/01/28 02:00:15;;;;;;;3.37;3.07;;;;;;;1.33;100.00;100999.97;5040526;28;20175;-74
2023/01/28 02:02:47;;;;;;;3.40;3.10;;;;;;;1.31;100.00;100993.94;5022389;28;20234;-72
2023/01/28 02:05:16;;;;;;;3.97;3.60;;;;;;;1.34;100.00;100994.97;5044862;28;20236;-72
2023/01/28 02:07:43;;;;;;;3.37;3.07;;;;;;;1.33;100.00;100993.22;5027140;28;20195;-74
2023/01/28 02:10:11;;;;;;;4.13;3.73;;;;;;;1.35;100.00;100991.59;5021518;28;20192;-73
2023/01/28 02:12:41;;;;;;;3.53;3.23;;;;;;;1.32;100.00;100986.38;5020754;28;20726;-75
2023/01/28 02:15:19;;;;;;;3.73;3.40;;;;;;;1.35;100.00;100985.63;5032709;28;20195;-72
2023/01/28 02:17:45;;;;;;;3.60;3.30;;;;;;;1.35;100.00;100985.63;5013565;28;20183;-72
2023/01/28 02:20:20;;;;;;;3.80;3.50;;;;;;;1.32;100.00;100985.50;5019416;28;20183;-72
2023/01/28 02:23:32;;;;;;;3.30;3.00;;;;;;;1.31;100.00;100986.31;5020748;28;20215;-73
2023/01/28 02:26:09;;;;;;;3.73;3.43;;;;;;;1.30;100.00;100989.66;5031610;28;20205;-72
2023/01/28 02:29:05;;;;;;;3.20;2.90;;;;;;;1.31;100.00;100999.06;5028381;28;20202;-72
2023/01/28 02:31:42;;;;;;;3.57;3.27;;;;;;;1.31;100.00;100997.38;5026168;28;20681;-72
2023/01/28 02:34:38;;;;;;;3.40;3.10;;;;;;;1.31;100.00;100999.06;5029276;28;20194;-72
2023/01/28 02:37:14;;;;;;;3.60;3.30;;;;;;;1.31;100.00;100996.50;5019396;28;20820;-73
2023/01/28 02:39:46;;;;;;;3.60;3.30;;;;;;;1.31;100.00;100999.06;5023877;28;20215;-75
2023/01/28 02:42:17;;;;;;;3.67;3.23;;;;;;;1.31;100.00;101009.25;5023225;28;20671;-73
2023/01/28 02:44:42;;;;;;;3.83;3.53;;;;;;;1.32;100.00;101003.34;5026843;28;20232;-73
2023/01/28 02:49:58;;;;;;;3.87;3.20;;;;;;;1.34;100.00;101007.72;5017952;28;20198;-73
2023/01/28 02:55:34;;;;;;;3.23;2.93;;;;;;;1.36;100.00;101007.75;5024008;28;20279;-75
2023/01/28 02:57:59;;;;;;;3.33;3.03;;;;;;;1.36;100.00;101012.88;5032187;28;20190;-73
2023/01/28 03:01:02;;;;;;;3.27;2.97;;;;;;;1.39;100.00;101017.22;5018950;28;20238;-75
2023/01/28 03:03:44;;;;;;;3.33;3.03;;;;;;;1.36;100.00;101017.97;5020831;28;20281;-72
2023/01/28 03:06:16;;;;;;;3.63;3.33;;;;;;;1.35;100.00;101016.22;5018821;28;20195;-72
2023/01/28 03:36:46;;;;;;;3.43;3.13;;;;;;;1.44;100.00;101014.03;5023353;28;20831;-73
2023/01/28 03:39:11;;;;;;;4.03;3.63;;;;;;;1.43;100.00;101013.97;5015158;28;20188;-75
2023/01/28 03:41:37;;;;;;;3.53;3.23;;;;;;;1.44;100.00;101020.81;5014321;28;20278;-73
2023/01/28 03:46:47;;;;;;;3.50;3.20;;;;;;;1.44;100.00;101024.22;5026591;28;20201;-74
2023/01/28 03:49:14;;;;;;;3.67;3.37;;;;;;;1.44;100.00;101025.94;5013447;28;20229;-73
2023/01/28 03:51:39;;;;;;;3.63;3.33;;;;;;;1.44;100.00;101031.88;5011361;28;20189;-74
2023/01/28 03:54:05;;;;;;;3.63;3.33;;;;;;;1.46;100.00;101031.97;5022254;28;20242;-72
2023/01/28 03:56:36;;;;;;;3.60;3.30;;;;;;;1.48;100.00;101030.34;5018746;28;20192;-72
2023/01/28 03:59:02;;;;;;;3.00;2.80;;;;;;;1.49;100.00;101032.97;5013976;28;20191;-73
2023/01/28 04:01:27;;;;;;;3.20;2.90;;;;;;;1.48;100.00;101023.56;5010377;28;20207;-72
2023/01/28 04:03:53;;;;;;;3.60;3.30;;;;;;;1.48;100.00;101027.81;5021911;28;20652;-72
2023/01/28 04:06:18;;;;;;;3.90;3.40;;;;;;;1.48;100.00;101030.34;5015278;28;20226;-74
2023/01/28 04:08:47;;;;;;;3.30;3.00;;;;;;;1.47;100.00;101032.00;5012723;28;20198;-72
2023/01/28 04:11:18;;;;;;;3.20;2.90;;;;;;;1.51;100.00;101035.59;5012631;28;20184;-75
2023/01/28 04:13:45;;;;;;;3.07;2.77;;;;;;;1.52;100.00;101033.09;5013782;28;20692;-73
2023/01/28 04:16:12;;;;;;;2.93;2.73;;;;;;;1.55;100.00;101042.53;5027805;28;20194;-71
2023/01/28 04:18:37;;;;;;;3.50;3.20;;;;;;;1.56;100.00;101030.66;5015689;28;20204;-74
2023/01/28 04:21:03;;;;;;;3.20;2.90;;;;;;;1.57;100.00;101037.50;5019456;28;20237;-73
2023/01/28 04:23:29;;;;;;;3.37;3.07;;;;;;;1.58;100.00;101041.81;5017787;28;20215;-72
2023/01/28 04:25:55;;;;;;;3.40;3.10;;;;;;;1.60;100.00;101042.72;5014681;28;20210;-73
2023/01/28 04:28:20;;;;;;;3.40;3.10;;;;;;;1.56;100.00;101049.38;5013460;28;20203;-72
2023/01/28 04:30:46;;;;;;;3.20;3.00;;;;;;;1.55;100.00;101047.63;5028066;28;20282;-75
2023/01/28 04:33:12;;;;;;;3.90;3.53;;;;;;;1.54;100.00;101045.03;5027604;28;20242;-72
2023/01/28 04:35:38;;;;;;;3.70;3.40;;;;;;;1.54;100.00;101045.03;5014515;28;20202;-71
2023/01/28 04:38:03;;;;;;;4.33;3.60;;;;;;;1.57;100.00;101050.25;5018886;28;20188;-72
2023/01/28 04:40:29;;;;;;;3.30;3.10;;;;;;;1.57;100.00;101053.66;5010962;28;20192;-72
2023/01/28 04:42:55;;;;;;;3.57;3.27;;;;;;;1.59;100.00;101049.50;5014265;28;20215;-72
2023/01/28 04:45:21;;;;;;;3.83;3.50;;;;;;;1.62;100.00;101047.09;5009914;28;20220;-71
2023/01/28 04:47:47;;;;;;;4.23;3.83;;;;;;;1.61;100.00;101050.44;5014882;28;20556;-72
2023/01/28 04:50:12;;;;;;;4.53;4.13;;;;;;;1.60;100.00;101048.69;5015357;28;20179;-72
2023/01/28 04:52:37;;;;;;;5.03;3.50;;;;;;;1.58;100.00;101052.88;5014268;28;20693;-73
2023/01/28 04:55:03;;;;;;;4.13;3.53;;;;;;;1.60;100.00;101050.34;5016013;28;20195;-71
2023/01/28 04:57:29;;;;;;;3.80;3.50;;;;;;;1.61;100.00;101053.00;5021305;28;20195;-73
2023/01/28 04:59:54;;;;;;;4.30;3.90;;;;;;;1.65;100.00;101046.31;5022175;28;20203;-73
2023/01/28 05:02:19;;;;;;;4.60;4.20;;;;;;;1.65;100.00;101049.75;5058888;28;20212;-72
2023/01/28 05:04:45;;;;;;;4.17;3.80;;;;;;;1.66;100.00;101053.16;5023534;28;20183;-72
2023/01/28 05:07:10;;;;;;;3.87;3.57;;;;;;;1.68;100.00;101056.66;5015315;28;20291;-74
2023/01/28 05:09:36;;;;;;;3.90;3.60;;;;;;;1.69;100.00;101060.94;5020819;28;20198;-75
2023/01/28 05:12:02;;;;;;;4.40;4.00;;;;;;;1.67;100.00;101065.13;5011759;28;20212;-73
2023/01/28 05:14:27;;;;;;;4.80;4.40;;;;;;;1.66;100.00;101055.72;5016940;28;20245;-73
2023/01/28 05:16:53;;;;;;;4.67;4.27;;;;;;;1.67;100.00;101063.44;5030165;28;20662;-74
2023/01/28 05:19:18;;;;;;;6.30;4.40;;;;;;;1.68;100.00;101066.88;5033619;28;20195;-75
2023/01/28 05:21:43;;;;;;;5.17;4.73;;;;;;;1.68;100.00;101066.88;5023031;28;20220;-74
2023/01/28 05:24:09;;;;;;;5.00;4.60;;;;;;;1.68;100.00;101069.41;5016322;28;20183;-76
2023/01/28 05:26:36;;;;;;;5.93;5.43;;;;;;;1.69;100.00;101066.06;5017183;28;20718;-74
2023/01/28 05:29:01;;;;;;;5.90;5.40;;;;;;;1.66;100.00;101060.81;5022211;28;20211;-74
2023/01/28 05:31:27;;;;;;;6.90;6.30;;;;;;;1.69;100.00;101081.38;5023182;28;20215;-74
2023/01/28 05:33:52;;;;;;;7.03;6.33;;;;;;;1.64;100.00;101076.09;5021934;28;20782;-72
2023/01/28 05:36:18;;;;;;;6.43;5.93;;;;;;;1.62;100.00;101072.59;5024060;28;20188;-73
2023/01/28 05:38:43;;;;;;;6.87;6.33;;;;;;;1.60;100.00;101079.31;5027809;28;20230;-74
2023/01/28 05:41:08;;;;;;;6.60;6.10;;;;;;;1.59;100.00;101075.03;5015117;28;20192;-74
2023/01/28 05:43:34;;;;;;;7.13;6.47;;;;;;;1.60;100.00;101075.88;5016778;28;20230;-73
2023/01/28 05:45:59;;;;;;;7.30;6.67;;;;;;;1.58;100.00;101073.28;5015600;28;20203;-73
2023/01/28 05:48:24;;;;;;;7.97;7.27;;;;;;;1.52;100.00;101086.66;5016535;28;20195;-72
2023/01/28 05:50:50;;;;;;;7.30;6.70;;;;;;;1.52;100.00;101088.31;5014146;28;20222;-73
2023/01/28 05:53:15;;;;;;;6.57;6.03;;;;;;;1.47;100.00;101089.84;5023448;28;20217;-73
2023/01/28 05:55:40;;;;;;;7.30;6.60;;;;;;;1.44;100.00;101087.16;5016818;28;20189;-73
2023/01/28 05:58:06;;;;;;;7.00;6.40;;;;;;;1.40;100.00;101088.72;5014932;28;20203;-73
2023/01/28 06:00:31;;;;;;;7.30;6.60;;;;;;;1.39;100.00;101098.81;5015909;28;20202;-75
2023/01/28 06:02:56;;;;;;;7.20;6.60;;;;;;;1.39;100.00;101101.38;5029350;28;20233;-73
2023/01/28 06:05:22;;;;;;;8.13;7.43;;;;;;;1.38;100.00;101100.53;5040520;28;20182;-72
2023/01/28 06:07:47;;;;;;;7.97;7.27;;;;;;;1.38;100.00;101105.63;5027753;28;20659;-72
2023/01/28 06:10:13;;;;;;;8.77;8.07;;;;;;;1.37;100.00;101111.53;5022982;28;20723;-71
2023/01/28 06:12:39;;;;;;;8.37;7.60;;;;;;;1.37;100.00;101106.44;5020940;28;20231;-74
2023/01/28 06:15:05;;;;;;;8.83;8.13;;;;;;;1.39;100.00;101111.59;5021785;28;20184;-73
2023/01/28 06:17:30;;;;;;;9.20;8.40;;;;;;;1.39;100.00;101120.13;5019556;28;20267;-72
2023/01/28 06:19:56;;;;;;;9.27;8.47;;;;;;;1.41;100.00;101115.06;5023413;28;20629;-73
2023/01/28 06:22:21;;;;;;;9.57;8.77;;;;;;;1.43;100.00;101121.13;5022740;28;20215;-72
2023/01/28 06:24:46;;;;;;;9.50;8.60;;;;;;;1.43;100.00;101126.22;5018057;28;20221;-72
2023/01/28 06:27:12;;;;;;;9.80;8.90;;;;;;;1.40;100.00;101128.63;5017924;28;20271;-72
2023/01/28 06:29:37;;;;;;;9.13;8.33;;;;;;;1.35;100.00;101131.88;5027409;28;20192;-73
2023/01/28 06:32:03;;;;;;;8.70;8.00;;;;;;;1.31;100.00;101129.13;5014994;28;20224;-72
2023/01/28 06:34:28;;;;;;;8.63;7.93;;;;;;;1.26;100.00;101143.38;5015028;28;20193;-72
2023/01/28 06:36:54;;;;;;;9.13;8.33;;;;;;;1.22;100.00;101144.88;5014368;28;20274;-72
2023/01/28 06:39:23;;;;;;;7.90;7.10;;;;;;;1.17;100.00;101146.38;5021533;28;20198;-73
2023/01/28 06:41:49;;;;;;;8.30;7.50;;;;;;;1.13;100.00;101145.41;5019615;28;20944;-73
2023/01/28 06:44:15;;;;;;;9.00;8.27;;;;;;;1.10;100.00;101144.38;5016488;28;20187;-74
2023/01/28 06:46:41;;;;;;;8.73;7.87;;;;;;;1.07;100.00;101142.56;5022633;28;20189;-72
2023/01/28 06:49:06;;;;;;;8.70;7.87;;;;;;;1.06;100.00;101143.38;5012656;28;20188;-73
2023/01/28 06:51:32;;;;;;;8.57;7.83;;;;;;;1.06;100.00;101151.88;5021867;28;20949;-73
2023/01/28 06:53:57;;;;;;;9.10;7.67;;;;;;;1.05;100.00;101152.72;5013549;28;20257;-75
2023/01/28 06:56:22;;;;;;;9.13;8.23;;;;;;;1.06;100.00;101154.41;5010622;28;20183;-75
2023/01/28 06:58:48;;;;;;;9.67;8.77;;;;;;;1.08;100.00;101151.06;5013463;28;20231;-75
2023/01/28 07:01:13;;;;;;;9.97;8.90;;;;;;;1.08;100.00;101151.97;5011331;28;20188;-75
2023/01/28 07:03:38;;;;;;;9.20;8.40;;;;;;;1.10;100.00;101162.22;5016562;28;20223;-74
2023/01/28 07:06:04;;;;;;;9.10;8.20;;;;;;;1.12;100.00;101160.59;5024269;28;20200;-74
2023/01/28 07:08:30;;;;;;;7.93;7.23;;;;;;;1.15;100.00;101168.41;5037919;28;20710;-75
2023/01/28 07:10:55;;;;;;;8.07;7.37;;;;;;;1.18;100.00;101168.53;5032123;28;20206;-72
2023/01/28 07:13:20;;;;;;;8.77;8.00;;;;;;;1.20;100.00;101156.72;5009250;28;20212;-73
2023/01/28 07:15:46;;;;;;;7.90;7.27;;;;;;;1.21;100.00;101169.53;5014101;28;20187;-74
2023/01/28 07:18:11;;;;;;;8.70;7.90;;;;;;;1.20;100.00;101174.56;5017593;28;20203;-73
2023/01/28 07:20:36;;;;;;;8.83;8.03;;;;;;;1.18;100.00;101171.94;5030301;28;20195;-75
2023/01/28 07:23:02;;;;;;;8.53;7.73;;;;;;;1.18;100.00;101184.69;5016958;28;20281;-75
2023/01/28 07:25:27;;;;;;;9.00;8.20;;;;;;;1.16;100.00;101182.88;5033446;28;20199;-73
2023/01/28 07:27:52;;;;;;;8.63;7.83;;;;;;;1.13;100.00;101181.09;5041596;28;20182;-72
2023/01/28 07:30:19;;;;;;;8.23;7.43;;;;;;;1.13;100.00;101185.28;5030387;28;20283;-74
2023/01/28 07:32:45;;;;;;;8.90;7.93;;;;;;;1.12;100.00;101175.91;5033297;28;20272;-73
2023/01/28 07:35:11;;;;;;;8.50;7.70;;;;;;;1.13;100.00;101177.66;5036041;28;20245;-73
2023/01/28 07:37:37;;;;;;;8.83;8.03;;;;;;;1.14;100.00;101176.84;5033861;28;20183;-74
2023/01/28 07:40:02;;;;;;;7.97;7.17;;;;;;;1.16;100.00;101188.00;5031908;28;20274;-75
2023/01/28 07:42:28;;;;;;;8.43;7.73;;;;;;;1.16;100.00;101188.00;5021721;28;20298;-73
2023/01/28 07:44:53;;;;;;;7.80;7.10;;;;;;;1.15;100.00;101187.09;5036359;28;20277;-74
2023/01/28 07:47:18;;;;;;;8.83;7.57;;;;;;;1.17;100.00;101193.13;5036164;28;20240;-74
2023/01/28 07:49:44;;;;;;;7.87;7.17;;;;;;;1.18;100.00;101197.44;5042395;28;20194;-73
2023/01/28 07:52:09;;;;;;;8.33;7.60;;;;;;;1.19;100.00;101191.53;5027230;28;20290;-73
2023/01/28 07:54:34;;;;;;;7.83;7.13;;;;;;;1.21;100.00;101191.63;5013361;28;20278;-73
2023/01/28 07:57:00;;;;;;;9.00;8.10;;;;;;;1.23;100.00;101196.78;5013829;28;20409;-72
2023/01/28 07:59:25;;;;;;;8.77;7.97;;;;;;;1.25;100.00;101197.72;5017925;28;20286;-74
2023/01/28 08:01:52;;;;;;;8.70;7.83;;;;;;;1.24;100.00;101199.38;5016982;28;20306;-73
2023/01/28 08:04:18;;;;;;;8.33;7.63;;;;;;;1.27;100.00;101196.97;5013302;28;20192;-73
2023/01/28 08:06:43;;;;;;;8.47;7.67;;;;;;;1.31;100.00;101205.63;5012171;28;20549;-74
2023/01/28 08:09:08;;;;;;;8.83;8.10;;;;;;;1.32;100.00;101212.47;5017924;28;20215;-74
2023/01/28 08:11:37;;;;;;;8.60;7.80;;;;;;;1.33;100.00;101211.66;5018771;28;20187;-74
2023/01/28 08:14:03;;;;;;;9.03;7.50;;;;;;;1.33;100.00;101215.09;5018131;28;20188;-74
2023/01/28 08:16:28;;;;;;;8.47;7.67;;;;;;;1.35;100.00;101210.06;5013696;28;20246;-74
2023/01/28 08:18:54;;;;;;;8.90;8.10;;;;;;;1.35;100.00;101221.16;5011306;28;20271;-74
2023/01/28 08:21:19;;;;;;;8.70;7.90;;;;;;;1.35;100.00;101218.59;5015759;28;20663;-74
2023/01/28 08:23:44;;;;;;;9.00;8.20;;;;;;;1.39;100.00;101222.16;5011871;28;20208;-73
2023/01/28 08:26:10;;;;;;;9.53;8.63;;;;;;;1.36;100.00;101225.41;5013285;28;20192;-75
2023/01/28 08:28:35;;;;;;;9.27;8.27;;;;;;;1.36;100.00;101220.31;5017074;28;20195;-74
2023/01/28 08:31:01;;;;;;;8.93;8.13;;;;;;;1.38;100.00;101225.50;5035478;28;20196;-74
2023/01/28 08:33:27;;;;;;;9.50;8.60;;;;;;;1.40;100.00;101223.91;5017970;28;20226;-74
2023/01/28 08:35:52;;;;;;;9.33;8.43;;;;;;;1.45;100.00;101221.53;5018869;28;20215;-74
2023/01/28 08:38:19;;;;;;;9.17;8.37;;;;;;;1.48;100.00;101222.53;5017939;28;20277;-74
2023/01/28 08:40:45;;;;;;;9.17;8.27;;;;;;;1.51;100.00;101225.22;5019138;28;20886;-74
2023/01/28 08:43:11;;;;;;;9.73;8.07;;;;;;;1.56;100.00;101222.88;5013306;28;20219;-74
2023/01/28 08:45:38;;;;;;;9.57;8.67;;;;;;;1.62;100.00;101222.25;5011789;28;20245;-74
2023/01/28 08:48:05;;;;;;;9.27;8.37;;;;;;;1.66;100.00;101230.09;5014677;28;20222;-75
2023/01/28 08:50:36;;;;;;;9.10;8.30;;;;;;;1.70;100.00;101228.56;5021489;28;20199;-75
2023/01/28 08:53:09;;;;;;;8.50;7.80;;;;;;;1.76;100.00;101223.72;5016966;28;20784;-73
2023/01/28 08:55:34;;;;;;;9.43;8.63;;;;;;;1.79;100.00;101233.19;5013742;28;20196;-73
2023/01/28 08:58:05;;;;;;;8.70;7.90;;;;;;;1.87;100.00;101224.16;5030310;28;20585;-74
2023/01/28 09:00:31;;;;;;;9.47;8.57;;;;;;;1.90;100.00;101228.50;5025530;28;20184;-73
2023/01/28 09:02:56;;;;;;;8.73;7.83;;;;;;;1.92;100.00;101232.91;5024782;28;20776;-74
2023/01/28 09:05:22;;;;;;;8.37;7.67;;;;;;;1.95;100.00;101227.94;5016473;28;20183;-73
2023/01/28 09:07:48;;;;;;;8.50;7.70;;;;;;;2.01;100.00;101228.97;5014252;28;20275;-74
2023/01/28 09:10:15;;;;;;;8.60;7.70;;;;;;;2.05;100.00;101233.41;5031459;28;20179;-74
2023/01/28 09:12:40;;;;;;;8.73;7.93;;;;;;;2.07;100.00;101221.56;5019961;28;20207;-73
2023/01/28 09:15:06;;;;;;;8.80;8.00;;;;;;;2.10;100.00;101232.78;5035408;28;20198;-75
2023/01/28 09:17:32;;;;;;;9.00;8.20;;;;;;;2.07;100.00;101236.88;5023312;28;20222;-74
2023/01/28 09:19:57;;;;;;;9.17;8.20;;;;;;;2.05;100.00;101239.34;5033539;28;20251;-75
2023/01/28 09:22:23;;;;;;;9.17;8.27;;;;;;;2.12;100.00;101246.47;5021691;28;20719;-73
2023/01/28 09:24:48;;;;;;;8.50;7.80;;;;;;;2.10;100.00;101245.53;5016120;28;20737;-73
2023/01/28 09:27:13;;;;;;;8.30;7.60;;;;;;;2.07;100.00;101247.09;5020544;28;20195;-76
2023/01/28 09:29:39;;;;;;;9.00;8.10;;;;;;;2.15;100.00;101244.88;5021776;28;20203;-74
2023/01/28 09:32:06;;;;;;;8.90;8.10;;;;;;;2.17;100.00;101250.91;5028891;28;20660;-74
2023/01/28 09:34:31;;;;;;;8.47;7.70;;;;;;;2.12;100.00;101249.03;5013064;28;20265;-73
2023/01/28 09:36:56;;;;;;;8.63;7.83;;;;;;;2.15;100.00;101248.28;5018193;28;20271;-72
2023/01/28 09:39:23;;;;;;;8.10;7.40;;;;;;;2.19;100.00;101256.97;5022033;28;20638;-74
2023/01/28 09:41:54;;;;;;;8.40;7.70;;;;;;;2.20;100.00;101262.13;5022122;28;20214;-74
2023/01/28 09:44:38;;;;;;;9.80;8.90;;;;;;;2.26;100.00;101261.50;5019172;28;20258;-74
2023/01/28 09:47:11;;;;;;;9.03;8.20;;;;;;;2.24;100.00;101269.09;5013264;28;20242;-74
2023/01/28 09:49:42;;;;;;;8.73;7.93;;;;;;;2.33;100.00;101265.16;5018547;28;20188;-74
2023/01/28 09:52:14;;;;;;;8.20;7.40;;;;;;;2.36;100.00;101260.19;5015632;28;20220;-74
2023/01/28 09:54:54;;;;;;;9.37;8.47;;;;;;;2.49;100.00;101259.00;5017786;28;20187;-74
2023/01/28 09:57:29;;;;;;;8.53;7.73;;;;;;;2.55;100.00;101266.91;5024010;28;20218;-74
2023/01/28 09:59:55;;;;;;;8.97;8.17;;;;;;;2.65;100.00;101265.56;5018638;28;20750;-74
2023/01/28 10:02:33;;;;;;;8.33;7.53;;;;;;;2.70;100.00;101275.16;5017122;28;20580;-73
2023/01/28 10:05:17;;;;;;;8.23;7.47;;;;;;;2.77;100.00;101266.06;5017869;28;20188;-76
2023/01/28 10:08:11;;;;;;;9.00;8.10;;;;;;;2.80;100.00;101273.84;5024307;28;20544;-75
2023/01/28 10:10:45;;;;;;;8.77;7.97;;;;;;;2.87;100.00;101270.69;5023145;28;20180;-73
2023/01/28 10:14:06;;;;;;;8.37;7.57;;;;;;;2.75;100.00;101275.34;5011228;28;20219;-74
2023/01/28 10:16:45;;;;;;;8.00;7.30;;;;;;;2.77;100.00;101260.94;4981586;28;20200;-73
2023/01/28 10:19:27;;;;;;;7.67;6.97;;;;;;;2.80;100.00;101265.31;5011401;28;20210;-74
2023/01/28 10:21:56;;;;;;;8.30;7.60;;;;;;;2.67;100.00;101262.25;5012866;28;20234;-73
2023/01/28 10:24:28;;;;;;;8.63;7.87;;;;;;;2.66;100.00;101259.66;5015260;28;20251;-73
2023/01/28 10:26:55;;;;;;;8.67;7.90;;;;;;;2.70;100.00;101249.59;5011046;28;20196;-73
2023/01/28 10:29:25;;;;;;;8.50;7.70;;;;;;;2.72;100.00;101255.66;5011160;28;20551;-74
2023/01/28 10:31:52;;;;;;;9.00;8.07;;;;;;;2.70;100.00;101253.88;5004828;28;22199;-74
2023/01/28 10:34:18;;;;;;;8.10;7.40;;;;;;;2.71;100.00;101253.06;5015437;28;20566;-75
2023/01/28 10:36:44;;;;;;;7.67;6.97;;;;;;;2.66;100.00;101255.41;5023246;28;20207;-74
2023/01/28 10:39:14;;;;;;;8.20;7.40;;;;;;;2.61;100.00;101249.25;5018041;28;20219;-75
2023/01/28 10:41:39;;;;;;;8.37;7.57;;;;;;;2.58;100.00;101256.81;5019466;28;20200;-74
2023/01/28 10:44:11;;;;;;;8.87;8.07;;;;;;;2.61;100.00;101256.03;5018445;28;20188;-74
2023/01/28 10:46:37;;;;;;;8.23;7.23;;;;;;;2.59;100.00;101261.97;5015837;28;20198;-74
2023/01/28 10:49:20;;;;;;;8.37;7.57;;;;;;;2.57;100.00;101262.72;5018910;28;20191;-75
2023/01/28 10:51:46;;;;;;;8.97;7.93;;;;;;;2.54;100.00;101258.38;5014232;28;20698;-74
2023/01/28 10:54:22;;;;;;;7.73;7.03;;;;;;;2.57;100.00;101258.47;5019238;28;20188;-74
2023/01/28 10:56:53;;;;;;;7.80;7.10;;;;;;;2.68;100.00;101258.91;5014473;28;20191;-73
2023/01/28 10:59:27;;;;;;;8.20;7.50;;;;;;;2.74;100.00;101264.25;5019141;28;20188;-75
2023/01/28 11:01:57;;;;;;;7.20;6.50;;;;;;;2.77;100.00;101265.19;5024206;28;20717;-74
2023/01/28 11:04:25;;;;;;;7.77;7.07;;;;;;;2.83;100.00;101265.41;5021738;28;20590;-74
2023/01/28 11:06:55;;;;;;;8.37;7.47;;;;;;;2.79;100.00;101266.97;5020915;28;20207;-74
2023/01/28 11:09:26;;;;;;;8.87;7.97;;;;;;;2.85;100.00;101259.56;5030281;28;20240;-75
2023/01/28 11:11:51;;;;;;;8.83;7.00;;;;;;;2.86;100.00;101262.97;5018964;28;20242;-74
2023/01/28 11:14:21;;;;;;;8.10;7.40;;;;;;;2.95;100.00;101263.31;5016930;28;20184;-74
2023/01/28 11:16:49;;;;;;;7.93;7.23;;;;;;;3.08;100.00;101266.38;5016148;28;20240;-73
2023/01/28 11:19:19;;;;;;;7.87;7.17;;;;;;;3.02;100.00;101262.75;5013109;28;20184;-74
2023/01/28 11:21:54;;;;;;;7.70;7.00;;;;;;;2.95;100.00;101262.47;5014130;28;20207;-75
2023/01/28 11:24:27;;;;;;;7.87;7.17;;;;;;;2.87;100.00;101273.25;5020880;28;20187;-72
2023/01/28 11:27:28;;;;;;;7.60;7.00;;;;;;;2.83;100.00;101275.63;5037537;28;20180;-76
2023/01/28 11:30:02;;;;;;;9.03;8.27;;;;;;;2.67;100.00;101271.63;5034097;28;20185;-75
2023/01/28 11:32:29;;;;;;;9.57;8.67;;;;;;;2.45;100.00;101268.22;5023438;28;20811;-74
2023/01/28 11:34:59;;;;;;;11.40;10.27;;;;;;;2.36;100.00;101273.81;5018512;28;20183;-73
2023/01/28 11:37:26;;;;;;;11.53;10.53;;;;;;;2.32;100.00;101283.84;5012456;28;20212;-73
2023/01/28 11:40:01;;;;;;;12.63;11.43;;;;;;;2.30;100.00;101273.59;5009771;28;20295;-75
2023/01/28 11:42:26;;;;;;;13.80;12.50;;;;;;;2.28;100.00;101273.50;5009222;28;20689;-73
2023/01/28 11:44:53;;;;;;;14.70;13.20;;;;;;;2.25;100.00;101269.97;5012132;28;20196;-73
2023/01/28 11:47:42;;;;;;;15.43;13.77;;;;;;;2.24;100.00;101279.31;5008294;28;20191;-72
2023/01/28 11:50:17;;;;;;;15.97;14.27;;;;;;;2.26;100.00;101274.25;5013382;28;20662;-73
2023/01/28 11:52:57;;;;;;;16.37;14.77;;;;;;;2.26;100.00;101264.03;5015758;28;20217;-74
2023/01/28 11:55:37;;;;;;;17.60;15.70;;;;;;;2.28;100.00;101267.53;5015078;28;20676;-73
2023/01/28 11:58:16;;;;;;;18.07;16.23;;;;;;;2.22;100.00;101273.28;5008484;28;20188;-72
2023/01/28 12:00:56;;;;;;;19.33;17.23;;;;;;;2.29;100.00;101272.69;5019021;28;21156;-73
2023/01/28 12:03:50;;;;;;;30.43;25.90;;;;;;;2.28;100.00;101276.06;5019002;28;21098;-72
2023/01/28 12:06:39;;;;;;;17.43;15.50;;;;;;;2.20;100.00;101266.34;5031939;28;20195;-74
2023/01/28 12:09:22;;;;;;;15.47;13.87;;;;;;;2.19;100.00;101269.72;5014187;28;20199;-73